createdAt,value
2019-03-06T00:00:27.756Z,79.49
2019-03-06T00:01:27.749Z,79.49
2019-03-06T00:02:27.737Z,79.49
2019-03-06T00:03:27.723Z,79.49
2019-03-06T00:04:27.735Z,79.80
2019-03-06T00:05:27.710Z,79.80
2019-03-06T00:06:27.697Z,79.49
2019-03-06T00:07:27.682Z,79.18
2019-03-06T00:08:27.685Z,79.49
2019-03-06T00:09:27.686Z,79.59
2019-03-06T00:10:27.653Z,79.59
2019-03-06T00:11:27.641Z,79.49
2019-03-06T00:12:27.632Z,79.80
2019-03-06T00:13:27.620Z,79.49
2019-03-06T00:14:27.631Z,79.59
2019-03-06T00:15:27.600Z,79.59
2019-03-06T00:16:27.590Z,79.49
2019-03-06T00:17:27.580Z,79.59
2019-03-06T00:18:27.568Z,79.69
2019-03-06T00:19:27.707Z,79.49
2019-03-06T00:20:27.619Z,79.59
2019-03-06T00:21:27.540Z,79.59
2019-03-06T00:22:27.526Z,79.49
2019-03-06T00:23:27.524Z,79.38
2019-03-06T00:24:27.506Z,79.49
2019-03-06T00:25:27.518Z,79.66
2019-03-06T00:26:27.484Z,79.55
2019-03-06T00:27:27.473Z,78.83
2019-03-06T00:28:27.464Z,79.38
2019-03-06T00:29:27.453Z,79.49
2019-03-06T00:30:27.471Z,79.38
2019-03-06T00:31:27.446Z,79.49
2019-03-06T00:32:27.422Z,79.69
2019-03-06T00:33:27.411Z,79.49
2019-03-06T00:34:27.402Z,79.90
2019-03-06T00:35:27.414Z,79.76
2019-03-06T00:36:27.383Z,79.38
2019-03-06T00:37:27.380Z,79.35
2019-03-06T00:38:27.360Z,79.38
2019-03-06T00:39:27.352Z,79.38
2019-03-06T00:40:27.361Z,79.80
2019-03-06T00:41:27.327Z,80.21
2019-03-06T00:42:27.320Z,80.42
2019-03-06T00:43:27.308Z,80.83
2019-03-06T00:44:27.297Z,81.31
2019-03-06T00:45:27.312Z,81.96
2019-03-06T00:46:27.281Z,81.76
2019-03-06T00:47:27.266Z,81.56
2019-03-06T00:48:27.258Z,81.76
2019-03-06T00:49:27.254Z,81.96
2019-03-06T00:50:27.261Z,82.48
2019-03-06T00:51:27.224Z,82.59
2019-03-06T00:52:27.216Z,82.69
2019-03-06T00:53:27.205Z,83.00
2019-03-06T00:54:27.229Z,83.62
2019-03-06T00:55:27.204Z,83.62
2019-03-06T00:56:27.172Z,83.62
2019-03-06T00:57:27.161Z,83.83
2019-03-06T00:58:27.151Z,84.75
2019-03-06T00:59:27.141Z,84.44
2019-03-06T01:00:27.157Z,84.75
2019-03-06T01:01:27.121Z,84.75
2019-03-06T01:02:27.111Z,85.37
2019-03-06T01:03:27.099Z,85.06
2019-03-06T01:04:27.090Z,84.86
2019-03-06T01:05:27.102Z,84.65
2019-03-06T01:06:27.071Z,85.21
2019-03-06T01:07:27.059Z,85.47
2019-03-06T01:08:27.049Z,85.68
2019-03-06T01:09:27.036Z,85.58
2019-03-06T01:10:27.055Z,85.78
2019-03-06T01:11:27.016Z,85.47
2019-03-06T01:12:27.006Z,85.89
2019-03-06T01:13:26.997Z,86.13
2019-03-06T01:14:26.985Z,85.93
2019-03-06T01:15:26.981Z,86.24
2019-03-06T01:16:26.989Z,86.03
2019-03-06T01:17:26.958Z,85.99
2019-03-06T01:18:26.944Z,85.99
2019-03-06T01:19:26.935Z,86.10
2019-03-06T01:20:26.928Z,85.89
2019-03-06T01:21:26.936Z,85.89
2019-03-06T01:22:26.904Z,86.13
2019-03-06T01:23:26.900Z,85.99
2019-03-06T01:24:26.882Z,85.83
2019-03-06T01:25:26.871Z,86.30
2019-03-06T01:26:26.887Z,86.44
2019-03-06T01:27:26.854Z,86.30
2019-03-06T01:28:26.842Z,86.30
2019-03-06T01:29:26.837Z,86.82
2019-03-06T01:30:26.821Z,87.02
2019-03-06T01:31:26.830Z,86.92
2019-03-06T01:32:26.799Z,86.82
2019-03-06T01:33:26.789Z,87.02
2019-03-06T01:34:26.780Z,86.82
2019-03-06T01:35:26.776Z,86.82
2019-03-06T01:36:26.783Z,86.92
2019-03-06T01:37:26.746Z,86.92
2019-03-06T01:38:26.737Z,86.92
2019-03-06T01:39:26.725Z,86.61
2019-03-06T01:40:26.732Z,87.34
2019-03-06T01:41:47.724Z,87.23
2019-03-06T01:42:26.700Z,87.02
2019-03-06T01:43:26.682Z,87.34
2019-03-06T01:44:26.672Z,87.54
2019-03-06T01:45:26.662Z,87.95
2019-03-06T01:46:26.671Z,88.26
2019-03-06T01:47:26.642Z,87.95
2019-03-06T01:48:26.632Z,88.78
2019-03-06T01:49:26.621Z,87.65
2019-03-06T01:50:26.610Z,88.89
2019-03-06T01:51:26.622Z,88.89
2019-03-06T01:52:26.591Z,88.98
2019-03-06T01:53:26.577Z,88.78
2019-03-06T01:54:26.569Z,88.68
2019-03-06T01:55:26.558Z,88.57
2019-03-06T01:56:26.568Z,88.89
2019-03-06T01:57:26.536Z,89.09
2019-03-06T01:58:26.525Z,89.13
2019-03-06T01:59:26.515Z,89.19
2019-03-06T02:00:26.506Z,89.29
2019-03-06T02:01:26.514Z,89.09
2019-03-06T02:02:26.485Z,89.13
2019-03-06T02:03:26.475Z,89.40
2019-03-06T02:04:26.462Z,89.50
2019-03-06T02:05:26.452Z,89.50
2019-03-06T02:06:26.461Z,89.19
2019-03-06T02:07:26.433Z,88.89
2019-03-06T02:08:26.421Z,88.98
2019-03-06T02:09:26.416Z,88.78
2019-03-06T02:10:26.401Z,90.06
2019-03-06T02:11:26.418Z,90.06
2019-03-06T02:12:26.386Z,90.47
2019-03-06T02:13:26.372Z,89.95
2019-03-06T02:14:26.358Z,89.95
2019-03-06T02:15:26.346Z,89.95
2019-03-06T02:16:26.335Z,90.26
2019-03-06T02:17:26.349Z,90.26
2019-03-06T02:18:26.322Z,90.16
2019-03-06T02:19:26.313Z,89.50
2019-03-06T02:20:26.294Z,90.16
2019-03-06T02:21:26.285Z,90.26
2019-03-06T02:22:26.294Z,89.44
2019-03-06T02:23:26.263Z,90.16
2019-03-06T02:24:26.255Z,90.06
2019-03-06T02:25:26.244Z,89.86
2019-03-06T02:26:26.232Z,89.81
2019-03-06T02:27:26.243Z,90.47
2019-03-06T02:28:26.211Z,90.58
2019-03-06T02:29:26.199Z,90.47
2019-03-06T02:30:26.272Z,90.47
2019-03-06T02:31:26.180Z,90.58
2019-03-06T02:32:26.194Z,90.43
2019-03-06T02:33:26.163Z,90.64
2019-03-06T02:34:26.151Z,90.53
2019-03-06T02:35:26.157Z,89.92
2019-03-06T02:36:26.128Z,89.92
2019-03-06T02:37:26.145Z,89.61
2019-03-06T02:38:26.112Z,90.64
2019-03-06T02:39:26.099Z,90.53
2019-03-06T02:40:26.089Z,90.33
2019-03-06T02:41:26.078Z,90.53
2019-03-06T02:42:26.091Z,90.68
2019-03-06T02:43:26.059Z,90.68
2019-03-06T02:44:26.047Z,90.37
2019-03-06T02:45:26.041Z,90.64
2019-03-06T02:46:26.027Z,90.33
2019-03-06T02:47:26.036Z,90.53
2019-03-06T02:48:26.009Z,90.26
2019-03-06T02:49:25.994Z,90.06
2019-03-06T02:50:25.986Z,90.22
2019-03-06T02:51:25.975Z,90.37
2019-03-06T02:52:25.986Z,90.33
2019-03-06T02:53:25.964Z,90.26
2019-03-06T02:54:25.943Z,90.22
2019-03-06T02:55:25.932Z,90.12
2019-03-06T02:56:25.921Z,90.64
2019-03-06T02:57:25.937Z,90.33
2019-03-06T02:58:25.902Z,90.02
2019-03-06T02:59:25.908Z,90.33
2019-03-06T03:00:25.879Z,90.43
2019-03-06T03:01:25.873Z,90.53
2019-03-06T03:02:25.858Z,90.43
2019-03-06T03:03:25.870Z,90.53
2019-03-06T03:04:25.839Z,90.53
2019-03-06T03:05:25.827Z,90.64
2019-03-06T03:06:25.821Z,90.43
2019-03-06T03:07:25.812Z,90.43
2019-03-06T03:08:25.819Z,90.53
2019-03-06T03:09:25.787Z,90.43
2019-03-06T03:10:25.775Z,90.33
2019-03-06T03:11:25.770Z,90.33
2019-03-06T03:12:25.754Z,90.39
2019-03-06T03:13:25.769Z,90.33
2019-03-06T03:14:25.733Z,90.53
2019-03-06T03:15:25.722Z,90.22
2019-03-06T03:16:25.719Z,90.43
2019-03-06T03:17:25.703Z,90.22
2019-03-06T03:18:25.711Z,90.22
2019-03-06T03:19:25.698Z,90.59
2019-03-06T03:20:25.672Z,90.53
2019-03-06T03:21:27.043Z,90.53
2019-03-06T03:22:25.649Z,90.49
2019-03-06T03:23:25.662Z,90.39
2019-03-06T03:24:25.630Z,90.64
2019-03-06T03:25:25.621Z,90.02
2019-03-06T03:26:25.618Z,90.33
2019-03-06T03:27:25.594Z,90.43
2019-03-06T03:28:25.606Z,90.22
2019-03-06T03:29:25.613Z,90.22
2019-03-06T03:30:25.576Z,90.84
2019-03-06T03:31:25.554Z,90.95
2019-03-06T03:32:25.543Z,90.64
2019-03-06T03:33:25.554Z,90.95
2019-03-06T03:34:25.606Z,90.64
2019-03-06T03:35:25.520Z,91.16
2019-03-06T03:36:25.504Z,90.64
2019-03-06T03:37:25.513Z,90.84
2019-03-06T03:38:25.500Z,91.16
2019-03-06T03:39:25.473Z,91.05
2019-03-06T03:40:25.457Z,90.95
2019-03-06T03:41:25.447Z,90.95
2019-03-06T03:42:25.436Z,90.64
2019-03-06T03:43:25.451Z,90.95
2019-03-06T03:44:25.415Z,90.70
2019-03-06T03:45:25.404Z,90.53
2019-03-06T03:46:25.395Z,90.91
2019-03-06T03:47:25.388Z,90.95
2019-03-06T03:48:25.371Z,90.80
2019-03-06T03:49:27.802Z,90.91
2019-03-06T03:50:25.350Z,91.05
2019-03-06T03:51:25.342Z,90.59
2019-03-06T03:52:25.337Z,90.70
2019-03-06T03:53:25.320Z,90.49
2019-03-06T03:54:25.346Z,90.39
2019-03-06T03:55:25.328Z,90.49
2019-03-06T03:56:25.291Z,90.28
2019-03-06T03:57:25.279Z,90.28
2019-03-06T03:58:25.266Z,90.49
2019-03-06T03:59:25.287Z,90.28
2019-03-06T04:00:25.246Z,90.28
2019-03-06T04:01:25.238Z,90.28
2019-03-06T04:02:25.224Z,90.28
2019-03-06T04:03:25.300Z,90.19
2019-03-06T04:04:25.360Z,90.28
2019-03-06T04:05:25.196Z,90.28
2019-03-06T04:06:25.184Z,90.59
2019-03-06T04:07:25.174Z,90.28
2019-03-06T04:08:25.173Z,90.49
2019-03-06T04:09:25.200Z,90.28
2019-03-06T04:10:25.140Z,90.35
2019-03-06T04:11:25.132Z,90.28
2019-03-06T04:12:25.121Z,90.25
2019-03-06T04:13:25.113Z,90.25
2019-03-06T04:14:25.121Z,90.19
2019-03-06T04:15:25.182Z,90.28
2019-03-06T04:16:25.080Z,90.28
2019-03-06T04:17:25.066Z,90.35
2019-03-06T04:18:25.056Z,90.39
2019-03-06T04:19:25.073Z,90.28
2019-03-06T04:20:25.039Z,90.49
2019-03-06T04:21:25.041Z,90.80
2019-03-06T04:22:25.032Z,90.59
2019-03-06T04:23:25.005Z,90.55
2019-03-06T04:24:25.063Z,91.11
2019-03-06T04:25:24.990Z,90.91
2019-03-06T04:26:24.973Z,90.59
2019-03-06T04:27:24.967Z,90.59
2019-03-06T04:28:24.967Z,90.91
2019-03-06T04:29:24.964Z,90.86
2019-03-06T04:30:24.930Z,90.45
2019-03-06T04:31:24.919Z,90.55
2019-03-06T04:32:24.913Z,90.35
2019-03-06T04:33:24.900Z,90.25
2019-03-06T04:34:24.916Z,90.45
2019-03-06T04:35:24.923Z,90.25
2019-03-06T04:36:24.870Z,90.45
2019-03-06T04:37:24.855Z,89.94
2019-03-06T04:38:24.875Z,90.45
2019-03-06T04:39:24.863Z,90.35
2019-03-06T04:40:24.825Z,90.45
2019-03-06T04:41:24.813Z,90.55
2019-03-06T04:42:24.801Z,90.55
2019-03-06T04:43:24.794Z,90.14
2019-03-06T04:44:24.807Z,90.14
2019-03-06T04:45:24.773Z,90.25
2019-03-06T04:46:24.802Z,90.39
2019-03-06T04:47:24.749Z,90.35
2019-03-06T04:48:24.792Z,90.76
2019-03-06T04:49:24.730Z,90.66
2019-03-06T04:50:24.740Z,90.91
2019-03-06T04:51:24.708Z,91.01
2019-03-06T04:52:24.696Z,91.22
2019-03-06T04:53:24.687Z,91.32
2019-03-06T04:54:24.709Z,91.22
2019-03-06T04:55:24.905Z,91.32
2019-03-06T04:56:24.727Z,91.11
2019-03-06T04:57:24.645Z,91.42
2019-03-06T04:58:26.256Z,91.01
2019-03-06T04:59:24.625Z,91.52
2019-03-06T05:00:24.634Z,91.11
2019-03-06T05:01:24.603Z,91.11
2019-03-06T05:02:24.595Z,91.22
2019-03-06T05:03:24.581Z,91.11
2019-03-06T05:04:24.573Z,90.80
2019-03-06T05:05:24.580Z,90.59
2019-03-06T05:06:24.548Z,90.91
2019-03-06T05:07:24.540Z,91.01
2019-03-06T05:08:24.526Z,91.11
2019-03-06T05:09:24.517Z,90.80
2019-03-06T05:10:24.538Z,90.91
2019-03-06T05:11:24.498Z,91.01
2019-03-06T05:12:24.488Z,90.80
2019-03-06T05:13:25.329Z,90.80
2019-03-06T05:14:24.464Z,90.91
2019-03-06T05:15:24.475Z,91.11
2019-03-06T05:16:24.443Z,91.22
2019-03-06T05:17:24.432Z,91.11
2019-03-06T05:18:24.423Z,91.32
2019-03-06T05:19:24.415Z,91.22
2019-03-06T05:20:24.423Z,91.11
2019-03-06T05:21:24.391Z,90.80
2019-03-06T05:22:24.383Z,90.80
2019-03-06T05:23:24.368Z,90.70
2019-03-06T05:24:24.360Z,90.91
2019-03-06T05:25:24.379Z,90.80
2019-03-06T05:26:24.339Z,90.80
2019-03-06T05:27:24.326Z,90.59
2019-03-06T05:28:24.320Z,90.59
2019-03-06T05:29:24.307Z,90.80
2019-03-06T05:30:24.299Z,90.91
2019-03-06T05:31:24.309Z,90.91
2019-03-06T05:32:24.277Z,91.01
2019-03-06T05:33:24.272Z,90.80
2019-03-06T05:34:24.254Z,90.59
2019-03-06T05:35:24.241Z,91.01
2019-03-06T05:36:24.253Z,90.59
2019-03-06T05:37:24.247Z,90.59
2019-03-06T05:38:24.212Z,90.80
2019-03-06T05:39:24.201Z,90.59
2019-03-06T05:40:24.191Z,90.49
2019-03-06T05:41:24.202Z,90.59
2019-03-06T05:42:24.172Z,90.91
2019-03-06T05:43:24.159Z,90.39
2019-03-06T05:44:24.149Z,90.28
2019-03-06T05:45:24.138Z,90.49
2019-03-06T05:46:24.149Z,90.70
2019-03-06T05:47:24.116Z,90.80
2019-03-06T05:48:24.106Z,90.80
2019-03-06T05:49:24.101Z,90.49
2019-03-06T05:50:24.087Z,90.28
2019-03-06T05:51:24.096Z,90.19
2019-03-06T05:52:24.064Z,90.19
2019-03-06T05:53:24.056Z,90.28
2019-03-06T05:54:24.045Z,90.19
2019-03-06T05:55:24.034Z,90.19
2019-03-06T05:56:24.043Z,90.28
2019-03-06T05:57:24.010Z,90.39
2019-03-06T05:58:24.000Z,90.19
2019-03-06T05:59:23.990Z,90.19
2019-03-06T06:00:23.981Z,90.28
2019-03-06T06:01:23.999Z,90.19
2019-03-06T06:02:23.961Z,90.49
2019-03-06T06:03:23.947Z,90.28
2019-03-06T06:04:23.937Z,90.49
2019-03-06T06:05:23.928Z,90.39
2019-03-06T06:06:23.917Z,90.49
2019-03-06T06:07:23.932Z,89.87
2019-03-06T06:08:23.899Z,89.87
2019-03-06T06:09:23.885Z,89.98
2019-03-06T06:10:23.876Z,90.08
2019-03-06T06:11:23.864Z,89.56
2019-03-06T06:12:23.876Z,88.95
2019-03-06T06:13:23.844Z,89.05
2019-03-06T06:14:23.848Z,88.84
2019-03-06T06:15:23.823Z,88.95
2019-03-06T06:16:23.815Z,88.84
2019-03-06T06:17:23.826Z,88.95
2019-03-06T06:18:23.792Z,88.74
2019-03-06T06:19:23.781Z,88.32
2019-03-06T06:20:23.789Z,88.64
2019-03-06T06:21:23.760Z,88.64
2019-03-06T06:22:23.771Z,88.02
2019-03-06T06:23:23.743Z,87.81
2019-03-06T06:24:23.727Z,88.32
2019-03-06T06:25:23.720Z,88.32
2019-03-06T06:26:23.757Z,88.43
2019-03-06T06:27:23.718Z,88.43
2019-03-06T06:28:23.686Z,88.12
2019-03-06T06:29:23.675Z,87.71
2019-03-06T06:30:23.663Z,87.50
2019-03-06T06:31:23.654Z,87.50
2019-03-06T06:32:23.671Z,87.15
2019-03-06T06:33:23.643Z,87.08
2019-03-06T06:34:23.622Z,87.05
2019-03-06T06:35:23.614Z,86.74
2019-03-06T06:36:23.600Z,86.84
2019-03-06T06:37:23.613Z,86.94
2019-03-06T06:38:23.584Z,86.74
2019-03-06T06:39:23.577Z,86.02
2019-03-06T06:40:23.562Z,85.81
2019-03-06T06:41:23.551Z,85.81
2019-03-06T06:42:23.559Z,85.71
2019-03-06T06:43:23.528Z,86.22
2019-03-06T06:44:23.517Z,85.60
2019-03-06T06:45:23.506Z,85.50
2019-03-06T06:46:23.496Z,85.46
2019-03-06T06:47:23.507Z,85.25
2019-03-06T06:48:23.474Z,85.05
2019-03-06T06:49:23.462Z,85.05
2019-03-06T06:50:23.454Z,85.15
2019-03-06T06:51:23.467Z,84.74
2019-03-06T06:52:23.458Z,84.64
2019-03-06T06:53:23.427Z,83.91
2019-03-06T06:54:23.412Z,84.01
2019-03-06T06:55:23.401Z,83.19
2019-03-06T06:56:23.391Z,83.05
2019-03-06T06:57:23.399Z,83.36
2019-03-06T06:58:31.136Z,83.47
2019-03-06T06:59:24.355Z,83.05
2019-03-06T07:00:23.353Z,82.95
2019-03-06T07:01:23.344Z,82.43
2019-03-06T07:02:23.520Z,82.43
2019-03-06T07:03:23.318Z,82.02
2019-03-06T07:04:23.304Z,82.43
2019-03-06T07:05:23.296Z,82.09
2019-03-06T07:06:23.282Z,81.81
2019-03-06T07:07:23.297Z,81.47
2019-03-06T07:08:23.284Z,81.57
2019-03-06T07:09:23.253Z,81.77
2019-03-06T07:10:23.239Z,80.75
2019-03-06T07:11:23.229Z,80.85
2019-03-06T07:12:23.219Z,80.23
2019-03-06T07:13:23.230Z,80.44
2019-03-06T07:14:23.198Z,80.33
2019-03-06T07:15:23.190Z,80.44
2019-03-06T07:16:23.179Z,80.23
2019-03-06T07:17:23.166Z,80.30
2019-03-06T07:18:23.175Z,80.02
2019-03-06T07:19:23.144Z,79.99
2019-03-06T07:20:23.133Z,79.79
2019-03-06T07:21:23.124Z,79.06
2019-03-06T07:22:23.116Z,79.37
2019-03-06T07:23:23.126Z,79.68
2019-03-06T07:24:23.092Z,78.55
2019-03-06T07:25:23.085Z,78.14
2019-03-06T07:26:23.071Z,78.44
2019-03-06T07:27:23.060Z,78.51
2019-03-06T07:28:23.078Z,78.03
2019-03-06T07:29:23.038Z,78.00
2019-03-06T07:30:23.032Z,77.93
2019-03-06T07:31:23.018Z,77.93
2019-03-06T07:32:23.008Z,77.89
2019-03-06T07:33:23.019Z,78.41
2019-03-06T07:34:23.029Z,77.89
2019-03-06T07:35:22.977Z,78.51
2019-03-06T07:36:22.968Z,77.38
2019-03-06T07:37:28.741Z,77.28
2019-03-06T07:38:23.964Z,76.86
2019-03-06T07:39:22.940Z,76.86
2019-03-06T07:40:22.922Z,77.38
2019-03-06T07:41:22.918Z,76.97
2019-03-06T07:42:22.902Z,76.35
2019-03-06T07:43:22.927Z,76.04
2019-03-06T07:44:29.901Z,75.73
2019-03-06T07:45:23.869Z,75.94
2019-03-06T07:46:22.887Z,75.70
2019-03-06T07:47:22.848Z,75.80
2019-03-06T07:48:22.838Z,76.21
2019-03-06T07:49:22.848Z,75.39
2019-03-06T07:50:22.816Z,75.49
2019-03-06T07:51:22.849Z,75.08
2019-03-06T07:52:22.797Z,74.77
2019-03-06T07:53:22.787Z,74.33
2019-03-06T07:54:22.797Z,74.43
2019-03-06T07:55:22.766Z,73.91
2019-03-06T07:56:22.752Z,73.81
2019-03-06T07:57:22.743Z,73.88
2019-03-06T07:58:22.733Z,72.47
2019-03-06T07:59:22.745Z,72.68
2019-03-06T08:00:22.711Z,73.40
2019-03-06T08:01:22.703Z,72.89
2019-03-06T08:02:22.689Z,72.75
2019-03-06T08:03:22.678Z,72.65
2019-03-06T08:04:22.692Z,72.44
2019-03-06T08:05:22.659Z,72.03
2019-03-06T08:06:22.648Z,71.00
2019-03-06T08:07:22.639Z,70.66
2019-03-06T08:08:22.628Z,70.79
2019-03-06T08:09:22.638Z,70.87
2019-03-06T08:10:22.604Z,70.76
2019-03-06T08:11:22.594Z,70.56
2019-03-06T08:12:22.585Z,70.66
2019-03-06T08:13:22.572Z,70.15
2019-03-06T08:14:22.631Z,70.04
2019-03-06T08:15:22.555Z,70.01
2019-03-06T08:16:22.543Z,69.29
2019-03-06T08:17:22.533Z,69.09
2019-03-06T08:18:22.524Z,68.99
2019-03-06T08:19:22.512Z,69.37
2019-03-06T08:20:22.530Z,69.29
2019-03-06T08:21:22.492Z,69.37
2019-03-06T08:22:22.479Z,69.09
2019-03-06T08:23:22.468Z,68.99
2019-03-06T08:24:22.467Z,68.78
2019-03-06T08:25:22.470Z,68.65
2019-03-06T08:26:22.436Z,68.24
2019-03-06T08:27:22.427Z,68.34
2019-03-06T08:28:22.416Z,68.03
2019-03-06T08:29:22.407Z,67.62
2019-03-06T08:30:22.415Z,67.38
2019-03-06T08:31:22.394Z,67.08
2019-03-06T08:32:22.377Z,66.87
2019-03-06T08:33:22.362Z,66.67
2019-03-06T08:34:22.360Z,66.97
2019-03-06T08:35:22.366Z,66.56
2019-03-06T08:36:22.330Z,66.97
2019-03-06T08:37:22.320Z,67.08
2019-03-06T08:38:22.311Z,65.54
2019-03-06T08:39:22.302Z,65.84
2019-03-06T08:40:22.311Z,66.12
2019-03-06T08:41:22.281Z,65.20
2019-03-06T08:42:22.267Z,66.02
2019-03-06T08:43:22.257Z,64.89
2019-03-06T08:44:22.245Z,64.79
2019-03-06T08:45:22.269Z,64.97
2019-03-06T08:46:22.228Z,65.20
2019-03-06T08:47:22.214Z,64.45
2019-03-06T08:48:22.207Z,64.38
2019-03-06T08:49:22.195Z,64.65
2019-03-06T08:50:22.183Z,64.79
2019-03-06T08:51:22.193Z,65.17
2019-03-06T08:52:22.162Z,64.76
2019-03-06T08:53:22.151Z,65.17
2019-03-06T08:54:22.145Z,65.00
2019-03-06T08:55:22.129Z,64.79
2019-03-06T08:56:22.142Z,65.20
2019-03-06T08:57:22.113Z,65.51
2019-03-06T08:58:22.101Z,65.07
2019-03-06T08:59:22.091Z,64.65
2019-03-06T09:00:22.079Z,64.56
2019-03-06T09:01:22.089Z,64.45
2019-03-06T09:02:22.064Z,64.25
2019-03-06T09:03:22.045Z,64.79
2019-03-06T09:04:22.037Z,64.86
2019-03-06T09:05:22.025Z,64.35
2019-03-06T09:06:22.042Z,63.12
2019-03-06T09:07:22.007Z,63.73
2019-03-06T09:08:21.996Z,63.70
2019-03-06T09:09:21.983Z,63.91
2019-03-06T09:10:21.974Z,63.20
2019-03-06T09:11:21.985Z,63.26
2019-03-06T09:12:21.951Z,62.96
2019-03-06T09:13:21.940Z,63.29
2019-03-06T09:14:21.931Z,63.17
2019-03-06T09:15:23.800Z,62.76
2019-03-06T09:16:21.931Z,61.80
2019-03-06T09:17:21.899Z,61.50
2019-03-06T09:18:21.890Z,61.60
2019-03-06T09:19:21.879Z,61.06
2019-03-06T09:20:21.869Z,61.06
2019-03-06T09:21:21.880Z,60.55
2019-03-06T09:22:21.849Z,60.65
2019-03-06T09:23:23.439Z,60.42
2019-03-06T09:24:21.827Z,59.42
2019-03-06T09:25:21.820Z,60.14
2019-03-06T09:26:21.827Z,60.35
2019-03-06T09:27:21.794Z,59.30
2019-03-06T09:28:21.784Z,60.14
2019-03-06T09:29:21.774Z,60.11
2019-03-06T09:30:21.779Z,59.39
2019-03-06T09:31:21.790Z,59.70
2019-03-06T09:32:21.742Z,59.60
2019-03-06T09:33:21.733Z,59.50
2019-03-06T09:34:21.724Z,59.16
2019-03-06T09:35:21.713Z,58.65
2019-03-06T09:36:21.732Z,58.34
2019-03-06T09:37:21.689Z,58.04
2019-03-06T09:38:21.679Z,58.34
2019-03-06T09:39:21.674Z,58.34
2019-03-06T09:40:21.661Z,57.91
2019-03-06T09:41:21.648Z,57.40
2019-03-06T09:42:21.660Z,56.96
2019-03-06T09:43:21.627Z,57.68
2019-03-06T09:44:21.616Z,57.09
2019-03-06T09:45:21.608Z,57.48
2019-03-06T09:46:21.596Z,56.76
2019-03-06T09:47:21.606Z,56.66
2019-03-06T09:48:21.579Z,56.43
2019-03-06T09:49:21.565Z,56.32
2019-03-06T09:50:21.553Z,56.35
2019-03-06T09:51:21.549Z,55.94
2019-03-06T09:52:21.559Z,56.04
2019-03-06T09:53:21.523Z,55.82
2019-03-06T09:54:21.514Z,55.41
2019-03-06T09:55:21.500Z,54.69
2019-03-06T09:56:21.490Z,54.36
2019-03-06T09:57:21.502Z,54.57
2019-03-06T09:58:21.469Z,54.36
2019-03-06T09:59:21.463Z,54.64
2019-03-06T10:00:21.449Z,53.22
2019-03-06T10:01:21.439Z,53.85
2019-03-06T10:02:21.449Z,53.83
2019-03-06T10:03:21.417Z,53.62
2019-03-06T10:04:21.407Z,54.24
2019-03-06T10:05:21.401Z,53.42
2019-03-06T10:06:21.385Z,53.96
2019-03-06T10:07:21.405Z,54.13
2019-03-06T10:08:21.361Z,53.62
2019-03-06T10:09:21.353Z,53.70
2019-03-06T10:10:21.348Z,54.11
2019-03-06T10:11:21.330Z,53.47
2019-03-06T10:12:21.320Z,53.16
2019-03-06T10:13:21.329Z,52.86
2019-03-06T10:14:21.299Z,52.94
2019-03-06T10:15:21.288Z,52.63
2019-03-06T10:16:23.183Z,52.22
2019-03-06T10:17:21.271Z,52.43
2019-03-06T10:18:21.279Z,52.66
2019-03-06T10:19:21.246Z,51.92
2019-03-06T10:20:25.017Z,52.33
2019-03-06T10:21:21.225Z,52.22
2019-03-06T10:22:21.214Z,52.04
2019-03-06T10:23:21.238Z,52.55
2019-03-06T10:24:21.192Z,52.15
2019-03-06T10:25:29.799Z,52.33
2019-03-06T10:26:22.170Z,51.81
2019-03-06T10:27:21.164Z,51.61
2019-03-06T10:28:27.780Z,51.72
2019-03-06T10:29:22.145Z,51.79
2019-03-06T10:30:21.129Z,50.87
2019-03-06T10:31:21.120Z,51.39
2019-03-06T10:32:21.111Z,50.67
2019-03-06T10:33:21.118Z,50.78
2019-03-06T10:34:21.088Z,51.79
2019-03-06T10:35:21.076Z,51.08
2019-03-06T10:36:21.069Z,50.98
2019-03-06T10:37:21.060Z,50.16
2019-03-06T10:38:21.066Z,50.57
2019-03-06T10:39:21.032Z,50.57
2019-03-06T10:40:21.024Z,50.06
2019-03-06T10:41:21.012Z,50.67
2019-03-06T10:42:21.000Z,50.26
2019-03-06T10:43:20.991Z,50.90
2019-03-06T10:44:28.815Z,50.59
2019-03-06T10:45:21.970Z,50.80
2019-03-06T10:46:20.962Z,50.70
2019-03-06T10:47:20.948Z,49.86
2019-03-06T10:48:20.937Z,49.86
2019-03-06T10:49:20.951Z,49.25
2019-03-06T10:50:26.648Z,49.48
2019-03-06T10:51:21.908Z,48.86
2019-03-06T10:52:20.896Z,48.54
2019-03-06T10:53:20.885Z,48.84
2019-03-06T10:54:20.901Z,49.27
2019-03-06T10:55:20.863Z,48.23
2019-03-06T10:56:20.853Z,48.33
2019-03-06T10:57:20.843Z,48.84
2019-03-06T10:58:20.831Z,48.94
2019-03-06T10:59:20.844Z,48.43
2019-03-06T11:00:20.810Z,48.51
2019-03-06T11:01:20.799Z,48.21
2019-03-06T11:02:20.792Z,47.98
2019-03-06T11:03:20.779Z,47.96
2019-03-06T11:04:20.786Z,47.33
2019-03-06T11:05:20.757Z,46.01
2019-03-06T11:06:20.745Z,45.90
2019-03-06T11:07:20.734Z,45.72
2019-03-06T11:08:20.726Z,47.45
2019-03-06T11:09:20.740Z,47.67
2019-03-06T11:10:24.037Z,47.39
2019-03-06T11:11:21.693Z,48.54
2019-03-06T11:12:20.681Z,48.54
2019-03-06T11:13:20.676Z,48.54
2019-03-06T11:14:20.690Z,48.43
2019-03-06T11:15:20.649Z,47.90
2019-03-06T11:16:20.638Z,48.00
2019-03-06T11:17:20.627Z,47.78
2019-03-06T11:18:20.622Z,46.53
2019-03-06T11:19:20.644Z,46.94
2019-03-06T11:20:20.598Z,46.53
2019-03-06T11:21:20.587Z,46.21
2019-03-06T11:22:20.575Z,46.39
2019-03-06T11:23:20.565Z,45.68
2019-03-06T11:24:20.600Z,45.89
2019-03-06T11:25:20.568Z,45.48
2019-03-06T11:26:20.534Z,45.25
2019-03-06T11:27:20.523Z,45.23
2019-03-06T11:28:20.516Z,44.93
2019-03-06T11:29:20.508Z,44.24
2019-03-06T11:30:20.510Z,44.32
2019-03-06T11:31:20.479Z,44.54
2019-03-06T11:32:20.471Z,45.05
2019-03-06T11:33:20.534Z,45.48
2019-03-06T11:34:20.448Z,45.37
2019-03-06T11:35:20.462Z,45.25
2019-03-06T11:36:20.428Z,45.46
2019-03-06T11:37:20.419Z,45.46
2019-03-06T11:38:20.414Z,45.46
2019-03-06T11:39:20.399Z,44.65
2019-03-06T11:40:20.406Z,44.54
2019-03-06T11:41:20.386Z,44.42
2019-03-06T11:42:20.366Z,44.70
2019-03-06T11:43:20.361Z,43.61
2019-03-06T11:44:20.344Z,43.69
2019-03-06T11:45:20.357Z,42.66
2019-03-06T11:46:20.322Z,42.94
2019-03-06T11:47:20.314Z,41.83
2019-03-06T11:48:20.314Z,42.03
2019-03-06T11:49:20.293Z,41.93
2019-03-06T11:50:20.301Z,42.13
2019-03-06T11:51:20.269Z,43.16
2019-03-06T11:52:20.258Z,44.04
2019-03-06T11:53:20.250Z,44.16
2019-03-06T11:54:20.236Z,45.48
2019-03-06T11:55:20.251Z,45.29
2019-03-06T11:56:20.216Z,45.42
2019-03-06T11:57:20.216Z,46.33
2019-03-06T11:58:20.194Z,46.62
2019-03-06T11:59:20.185Z,45.48
2019-03-06T12:00:20.203Z,46.09
2019-03-06T12:01:20.164Z,45.66
2019-03-06T12:02:20.152Z,44.32
2019-03-06T12:03:20.140Z,44.32
2019-03-06T12:04:20.132Z,44.65
2019-03-06T12:05:22.225Z,45.28
2019-03-06T12:06:20.111Z,45.58
2019-03-06T12:07:20.101Z,45.80
2019-03-06T12:08:20.091Z,46.05
2019-03-06T12:09:20.078Z,47.47
2019-03-06T12:10:20.088Z,47.06
2019-03-06T12:11:20.056Z,46.66
2019-03-06T12:12:20.050Z,47.14
2019-03-06T12:13:20.037Z,46.01
2019-03-06T12:14:20.027Z,45.90
2019-03-06T12:15:20.043Z,45.78
2019-03-06T12:16:20.004Z,45.28
2019-03-06T12:17:19.992Z,45.40
2019-03-06T12:18:19.981Z,46.44
2019-03-06T12:19:19.972Z,46.23
2019-03-06T12:20:19.963Z,47.67
2019-03-06T12:21:19.971Z,46.45
2019-03-06T12:22:19.942Z,46.48
2019-03-06T12:23:19.931Z,46.58
2019-03-06T12:24:19.920Z,47.11
2019-03-06T12:25:19.911Z,47.52
2019-03-06T12:26:19.920Z,47.92
2019-03-06T12:27:19.890Z,48.56
2019-03-06T12:28:19.875Z,48.46
2019-03-06T12:29:19.867Z,49.37
2019-03-06T12:30:19.855Z,49.17
2019-03-06T12:31:19.867Z,49.37
2019-03-06T12:32:19.832Z,50.29
2019-03-06T12:33:19.829Z,50.80
2019-03-06T12:34:19.812Z,51.20
2019-03-06T12:35:19.802Z,51.00
2019-03-06T12:36:19.813Z,51.00
2019-03-06T12:37:19.781Z,51.20
2019-03-06T12:38:19.769Z,51.89
2019-03-06T12:39:19.761Z,51.89
2019-03-06T12:40:19.750Z,51.06
2019-03-06T12:41:19.760Z,50.73
2019-03-06T12:42:19.733Z,49.91
2019-03-06T12:43:19.717Z,49.79
2019-03-06T12:44:19.707Z,50.27
2019-03-06T12:45:19.695Z,48.34
2019-03-06T12:46:23.481Z,48.93
2019-03-06T12:47:19.677Z,48.42
2019-03-06T12:48:19.664Z,48.42
2019-03-06T12:49:19.659Z,48.24
2019-03-06T12:50:19.644Z,48.11
2019-03-06T12:51:19.659Z,48.55
2019-03-06T12:52:19.621Z,47.74